Time;durP1;ratioP1;P1;durP2;ratioP2;P2;SDS_P1;SDS_P2;PMS_P1;PMS_P2;Temp;Humidity;BMP_temperature;BMP_pressure;BME280_temperature;BME280_humidity;BME280_pressure;Samples;Min_cycle;Max_cycle;Signal;HPM_P1;HPM_P2
2023/01/12 00:01:31;;;;;;;4.00;1.23;;;12.00;99.90;;;;;;5109666;28;20168;-83
2023/01/12 00:03:58;;;;;;;5.10;1.10;;;12.00;99.90;;;;;;5074804;28;20697;-83
2023/01/12 00:06:25;;;;;;;4.00;0.80;;;12.00;99.90;;;;;;5075112;28;20593;-83
2023/01/12 00:08:51;;;;;;;4.50;1.08;;;12.00;99.90;;;;;;5074385;28;20706;-82
2023/01/12 00:11:18;;;;;;;5.07;0.95;;;12.00;99.90;;;;;;5109398;28;20174;-82
2023/01/12 00:13:44;;;;;;;4.22;1.58;;;12.10;99.90;;;;;;5091523;28;20259;-82
2023/01/12 00:16:34;;;;;;;5.60;1.73;;;12.10;99.90;;;;;;5109976;28;20305;-82
2023/01/12 00:19:01;;;;;;;5.25;1.30;;;12.10;99.90;;;;;;5109681;28;20199;-81
2023/01/12 00:21:27;;;;;;;7.68;1.40;;;12.10;99.90;;;;;;5109242;28;20231;-82
2023/01/12 00:23:53;;;;;;;7.40;1.00;;;12.10;99.90;;;;;;5091337;28;20285;-82
2023/01/12 00:26:19;;;;;;;2.70;0.80;;;12.10;99.90;;;;;;5091861;28;20572;-81
2023/01/12 00:28:45;;;;;;;2.50;1.00;;;12.10;99.90;;;;;;5114761;28;20174;-81
2023/01/12 00:31:11;;;;;;;5.10;1.57;;;12.20;99.90;;;;;;5090955;28;20288;-81
2023/01/12 00:33:38;;;;;;;6.45;0.85;;;12.20;99.90;;;;;;5109448;28;20163;-81
2023/01/12 00:36:06;;;;;;;4.27;0.80;;;12.10;99.90;;;;;;5091315;28;20167;-81
2023/01/12 00:38:35;;;;;;;3.03;0.70;;;12.20;99.90;;;;;;5091390;28;20653;-82
2023/01/12 00:41:09;;;;;;;4.65;1.38;;;12.20;99.90;;;;;;5108862;28;20573;-82
2023/01/12 00:46:27;;;;;;;2.33;0.80;;;12.20;99.90;;;;;;5091334;28;20163;-82
2023/01/12 00:48:53;;;;;;;2.53;0.70;;;12.20;99.90;;;;;;5074570;28;20344;-82
2023/01/12 00:51:18;;;;;;;3.07;0.70;;;12.20;99.90;;;;;;5090644;28;20274;-82
2023/01/12 00:53:44;;;;;;;2.93;0.90;;;12.20;99.90;;;;;;5091102;28;20787;-81
2023/01/12 00:56:10;;;;;;;3.13;1.13;;;12.20;99.90;;;;;;5076923;28;20556;-81
2023/01/12 00:58:35;;;;;;;2.07;0.70;;;12.30;99.90;;;;;;5095933;28;20175;-82
2023/01/12 01:01:06;;;;;;;5.67;0.90;;;12.30;99.90;;;;;;5113050;28;20259;-82
2023/01/12 01:03:32;;;;;;;3.25;0.70;;;12.30;99.90;;;;;;5113615;28;20189;-81
2023/01/12 01:06:06;;;;;;;3.97;0.85;;;12.30;99.90;;;;;;5115174;28;20186;-82
2023/01/12 01:08:35;;;;;;;2.75;0.80;;;12.30;99.90;;;;;;5113202;28;20171;-82
2023/01/12 01:11:10;;;;;;;2.25;0.70;;;12.30;99.90;;;;;;5094655;28;20232;-82
2023/01/12 01:13:39;;;;;;;4.32;0.88;;;12.30;99.90;;;;;;5095222;28;20285;-82
2023/01/12 01:16:06;;;;;;;3.70;0.85;;;12.30;99.90;;;;;;5113390;28;20531;-82
2023/01/12 01:18:34;;;;;;;4.13;1.00;;;12.30;99.90;;;;;;5113044;28;20171;-81
2023/01/12 01:21:00;;;;;;;2.50;0.82;;;12.30;99.90;;;;;;5094461;28;20216;-81
2023/01/12 01:23:29;;;;;;;7.32;1.65;;;12.30;99.90;;;;;;5077649;28;20256;-81
2023/01/12 01:25:54;;;;;;;4.70;0.95;;;12.30;99.90;;;;;;5113202;28;20266;-81
2023/01/12 01:28:21;;;;;;;2.70;0.80;;;12.30;99.90;;;;;;5094777;28;20262;-81
2023/01/12 01:30:47;;;;;;;4.20;0.90;;;12.40;99.90;;;;;;5094404;28;20199;-81
2023/01/12 01:33:13;;;;;;;2.58;0.90;;;12.30;99.90;;;;;;5112513;28;20171;-81
2023/01/12 01:35:39;;;;;;;3.13;0.60;;;12.40;99.90;;;;;;5112688;28;20221;-81
2023/01/12 01:38:06;;;;;;;3.50;1.00;;;12.40;99.90;;;;;;5094718;28;20175;-81
2023/01/12 01:40:32;;;;;;;4.28;0.90;;;12.40;99.90;;;;;;5112852;28;20668;-81
2023/01/12 01:42:57;;;;;;;4.05;1.10;;;12.40;99.90;;;;;;5118152;28;20170;-81
2023/01/12 01:45:24;;;;;;;2.90;0.90;;;12.40;99.90;;;;;;5112950;28;20724;-82
2023/01/12 01:47:53;;;;;;;3.00;0.73;;;12.40;99.90;;;;;;5112793;28;20258;-82
2023/01/12 01:50:28;;;;;;;2.97;1.02;;;12.40;99.90;;;;;;5111806;28;20287;-82
2023/01/12 01:52:59;;;;;;;3.63;0.90;;;12.40;99.90;;;;;;5093996;28;20177;-82
2023/01/12 01:55:33;;;;;;;5.57;1.38;;;12.40;99.90;;;;;;5076962;28;20661;-82
2023/01/12 01:58:09;;;;;;;2.63;0.90;;;12.40;99.90;;;;;;5112727;28;20171;-81
2023/01/12 02:00:39;;;;;;;5.45;0.95;;;12.40;99.90;;;;;;5093493;28;20178;-82
2023/01/12 02:03:07;;;;;;;4.38;0.90;;;12.50;99.90;;;;;;5075760;28;20190;-81
2023/01/12 02:05:35;;;;;;;4.32;0.77;;;12.50;99.90;;;;;;5076867;28;20279;-81
2023/01/12 02:08:06;;;;;;;4.73;0.87;;;12.50;99.90;;;;;;5094096;28;20586;-81
2023/01/12 02:10:32;;;;;;;3.03;1.10;;;12.50;99.90;;;;;;5111591;28;20953;-81
2023/01/12 02:16:19;;;;;;;6.82;0.90;;;12.50;99.90;;;;;;5112113;28;20870;-82
2023/01/12 02:19:20;;;;;;;7.22;1.58;;;12.50;99.90;;;;;;5077959;28;20242;-82
2023/01/12 02:21:51;;;;;;;2.15;0.70;;;12.50;99.90;;;;;;5098300;28;20574;-82
2023/01/12 02:24:39;;;;;;;5.18;1.00;;;12.50;99.90;;;;;;5093522;28;20187;-83
2023/01/12 02:27:34;;;;;;;10.75;1.25;;;12.50;99.90;;;;;;5085468;28;20178;-83
2023/01/12 02:30:37;;;;;;;4.65;1.00;;;12.60;99.90;;;;;;5066514;28;20295;-83
2023/01/12 02:33:11;;;;;;;3.90;1.45;;;12.60;99.90;;;;;;5072939;28;20175;-83
2023/01/12 02:35:48;;;;;;;4.60;1.13;;;12.60;99.90;;;;;;5059262;28;20213;-83
2023/01/12 02:38:36;;;;;;;9.68;1.00;;;12.60;99.90;;;;;;5084795;28;20174;-83
2023/01/12 02:44:31;;;;;;;3.20;0.90;;;12.50;99.90;;;;;;5093430;28;20787;-83
2023/01/12 02:46:59;;;;;;;5.65;1.00;;;12.50;99.90;;;;;;5076139;28;20244;-83
2023/01/12 02:49:30;;;;;;;3.10;0.90;;;12.60;99.90;;;;;;5093215;28;20231;-83
2023/01/12 02:52:07;;;;;;;4.50;1.15;;;12.60;99.90;;;;;;5110949;28;20205;-83
2023/01/12 02:54:35;;;;;;;5.60;1.30;;;12.60;99.90;;;;;;5093267;28;20186;-83
2023/01/12 02:57:06;;;;;;;6.30;1.15;;;12.50;99.90;;;;;;5095525;28;20258;-83
2023/01/12 02:59:43;;;;;;;5.35;1.42;;;12.50;99.90;;;;;;5086373;28;20218;-83
2023/01/12 03:02:16;;;;;;;2.92;0.82;;;12.50;99.90;;;;;;5068093;28;20246;-83
2023/01/12 03:04:42;;;;;;;5.85;1.20;;;12.50;99.90;;;;;;5072447;28;20585;-82
2023/01/12 03:07:25;;;;;;;3.15;0.85;;;12.50;99.90;;;;;;5072771;28;20172;-83
2023/01/12 03:09:56;;;;;;;3.28;1.00;;;12.50;99.90;;;;;;5072002;28;20241;-83
2023/01/12 03:12:28;;;;;;;3.33;0.90;;;12.50;99.90;;;;;;5090690;28;20195;-82
2023/01/12 03:14:55;;;;;;;2.83;0.80;;;12.50;99.90;;;;;;5055468;28;20184;-82
2023/01/12 03:17:31;;;;;;;3.63;0.70;;;12.50;99.90;;;;;;5089063;28;20669;-82
2023/01/12 03:20:06;;;;;;;1.83;0.80;;;12.40;99.90;;;;;;5071773;28;20183;-82
2023/01/12 03:22:35;;;;;;;5.15;0.70;;;12.40;99.90;;;;;;5072468;28;20187;-82
2023/01/12 03:25:08;;;;;;;3.92;0.90;;;12.30;99.90;;;;;;5072384;28;20202;-82
2023/01/12 03:27:40;;;;;;;3.47;1.00;;;12.30;99.90;;;;;;5090636;28;20208;-83
2023/01/12 03:30:33;;;;;;;2.38;0.70;;;12.20;99.90;;;;;;5055078;28;20787;-82
2023/01/12 03:32:59;;;;;;;4.60;0.93;;;12.00;99.90;;;;;;5090102;28;20197;-81
2023/01/12 03:35:27;;;;;;;2.20;0.80;;;12.00;99.90;;;;;;5097520;28;20206;-81
2023/01/12 03:37:57;;;;;;;2.40;0.80;;;11.90;99.90;;;;;;5072660;28;20639;-81
2023/01/12 03:40:31;;;;;;;2.97;0.70;;;11.80;99.90;;;;;;5055644;28;20171;-81
2023/01/12 03:42:56;;;;;;;3.92;0.93;;;11.70;99.90;;;;;;5075594;28;20184;-81
2023/01/12 03:45:51;;;;;;;7.87;1.70;;;11.60;99.90;;;;;;5094538;28;20279;-81
2023/01/12 03:48:24;;;;;;;3.72;0.85;;;11.50;99.90;;;;;;5080341;28;20186;-80
2023/01/12 03:50:52;;;;;;;2.25;0.75;;;11.50;99.90;;;;;;5103720;28;20195;-80
2023/01/12 03:53:21;;;;;;;4.95;1.30;;;11.40;99.90;;;;;;5106139;28;20171;-81
2023/01/12 03:55:50;;;;;;;6.00;0.80;;;11.40;99.90;;;;;;5103029;28;20207;-80
2023/01/12 03:58:17;;;;;;;3.00;0.77;;;11.30;99.90;;;;;;5095800;28;20203;-81
2023/01/12 04:00:43;;;;;;;1.88;0.70;;;11.30;99.90;;;;;;5092735;28;20237;-79
2023/01/12 04:03:15;;;;;;;3.05;0.68;;;11.30;99.90;;;;;;5092057;28;20175;-80
2023/01/12 04:05:42;;;;;;;3.33;1.10;;;11.20;99.90;;;;;;5058562;28;20206;-82
2023/01/12 04:08:09;;;;;;;2.75;0.70;;;11.20;99.90;;;;;;5088782;22;20171;-73
2023/01/12 04:10:35;;;;;;;9.45;1.27;;;11.20;99.90;;;;;;5083090;27;20202;-73
2023/01/12 04:13:01;;;;;;;2.73;0.70;;;11.20;99.90;;;;;;5120973;27;20178;-73
2023/01/12 04:15:26;;;;;;;2.53;0.83;;;11.20;99.90;;;;;;5103312;27;20664;-73
2023/01/12 04:17:52;;;;;;;6.40;1.20;;;11.10;99.90;;;;;;5099429;28;20695;-73
2023/01/12 04:20:19;;;;;;;2.50;0.97;;;11.10;99.90;;;;;;5109141;28;20214;-73
2023/01/12 04:22:45;;;;;;;6.28;0.95;;;11.10;99.90;;;;;;5071097;28;20967;-73
2023/01/12 04:25:14;;;;;;;5.72;0.70;;;11.20;99.90;;;;;;5088728;28;20590;-73
2023/01/12 04:27:48;;;;;;;2.85;0.73;;;11.10;99.90;;;;;;5088296;28;20251;-73
2023/01/12 04:30:15;;;;;;;3.85;0.73;;;11.20;99.90;;;;;;5087579;28;20264;-73
2023/01/12 04:32:42;;;;;;;1.98;0.60;;;11.20;99.90;;;;;;5070881;28;20237;-73
2023/01/12 04:35:11;;;;;;;3.13;0.70;;;11.20;99.90;;;;;;5071054;28;20175;-73
2023/01/12 04:37:37;;;;;;;1.70;0.60;;;11.20;99.90;;;;;;5089449;28;20209;-73
2023/01/12 04:40:03;;;;;;;1.80;0.73;;;11.20;99.90;;;;;;5088699;28;20195;-74
2023/01/12 04:45:14;;;;;;;3.38;0.60;;;11.20;99.90;;;;;;5089011;28;20435;-73
2023/01/12 04:47:40;;;;;;;3.97;0.60;;;11.20;99.90;;;;;;5088746;28;20186;-74
2023/01/12 04:50:07;;;;;;;1.90;0.70;;;11.30;99.90;;;;;;5070038;28;20210;-74
2023/01/12 04:52:34;;;;;;;3.05;0.70;;;11.20;99.90;;;;;;5076909;28;20182;-74
2023/01/12 04:55:00;;;;;;;1.77;0.60;;;11.30;99.90;;;;;;5090961;28;20274;-73
2023/01/12 04:57:26;;;;;;;2.92;0.70;;;11.30;99.90;;;;;;5091010;28;20220;-73
2023/01/12 04:59:52;;;;;;;1.83;0.60;;;11.30;99.90;;;;;;5090046;28;20199;-74
2023/01/12 05:02:18;;;;;;;2.70;0.70;;;11.20;99.90;;;;;;5109238;28;20171;-74
2023/01/12 05:04:46;;;;;;;2.73;0.70;;;11.20;99.90;;;;;;5091075;28;20182;-74
2023/01/12 05:07:12;;;;;;;1.77;0.68;;;11.20;99.90;;;;;;5109338;28;20565;-74
2023/01/12 05:12:22;;;;;;;1.83;0.70;;;11.10;99.90;;;;;;5090848;28;20193;-73
2023/01/12 05:14:48;;;;;;;2.42;0.70;;;11.10;99.90;;;;;;5090922;28;20167;-73
2023/01/12 05:17:14;;;;;;;1.50;0.55;;;11.10;99.90;;;;;;5109256;28;20235;-73
2023/01/12 05:19:40;;;;;;;1.50;0.60;;;11.10;99.90;;;;;;5090776;28;20191;-73
2023/01/12 05:22:06;;;;;;;1.10;0.40;;;11.00;99.90;;;;;;5109150;28;20565;-73
2023/01/12 05:24:36;;;;;;;1.43;0.50;;;11.00;99.90;;;;;;5091399;28;20179;-75
2023/01/12 05:27:02;;;;;;;2.08;0.60;;;11.00;99.90;;;;;;5091536;28;20190;-76
2023/01/12 05:29:28;;;;;;;6.82;0.60;;;11.00;99.90;;;;;;5090714;28;20214;-76
2023/01/12 05:31:53;;;;;;;1.50;0.50;;;10.90;99.90;;;;;;5108280;28;20163;-76
2023/01/12 05:34:19;;;;;;;3.30;0.60;;;10.90;99.90;;;;;;5109661;28;20163;-77
2023/01/12 05:36:46;;;;;;;2.00;0.60;;;10.90;99.90;;;;;;5109233;28;20163;-76
2023/01/12 05:39:12;;;;;;;2.67;0.60;;;10.80;99.90;;;;;;5109631;28;20659;-76
2023/01/12 05:43:48;;;;;;;1.60;0.60;;;10.80;99.90;;;;;;5079658;28;20167;-76
2023/01/12 05:44:23;;;;;;;2.78;0.60;;;10.80;99.90;;;;;;5094679;28;20175;-76
2023/01/12 05:46:49;;;;;;;1.10;0.43;;;10.70;99.90;;;;;;5094647;28;20240;-76
2023/01/12 05:49:14;;;;;;;2.40;0.93;;;10.60;99.90;;;;;;5094193;28;20599;-77
2023/01/12 05:51:40;;;;;;;3.03;0.70;;;10.50;99.90;;;;;;5112240;28;20246;-76
2023/01/12 05:54:06;;;;;;;1.30;0.60;;;10.50;99.90;;;;;;5094465;28;20167;-76
2023/01/12 05:56:32;;;;;;;2.60;0.70;;;10.50;99.90;;;;;;5112985;28;20708;-76
2023/01/12 05:59:00;;;;;;;2.80;0.52;;;10.40;99.90;;;;;;5094048;28;20648;-76
2023/01/12 06:01:27;;;;;;;3.25;0.70;;;10.50;99.90;;;;;;5093761;28;20174;-77
2023/01/12 06:03:56;;;;;;;4.05;0.70;;;10.40;99.90;;;;;;5112493;28;20258;-76
2023/01/12 06:06:23;;;;;;;1.30;0.63;;;10.40;99.90;;;;;;5094442;28;20171;-76
2023/01/12 06:08:51;;;;;;;2.92;0.70;;;10.40;99.90;;;;;;5093716;28;20298;-77
2023/01/12 06:14:01;;;;;;;1.60;0.60;;;10.40;99.90;;;;;;5093795;28;20680;-76
2023/01/12 06:16:28;;;;;;;1.95;0.50;;;10.40;99.90;;;;;;5094090;28;20171;-76
2023/01/12 06:18:55;;;;;;;1.73;0.43;;;10.40;99.90;;;;;;5077102;28;20241;-76
2023/01/12 06:21:21;;;;;;;1.50;0.50;;;10.40;99.90;;;;;;5111565;28;20167;-77
2023/01/12 06:23:47;;;;;;;1.80;0.63;;;10.40;99.90;;;;;;5112167;28;20163;-76
2023/01/12 06:26:13;;;;;;;1.97;0.60;;;10.30;99.90;;;;;;5093414;28;20622;-76
2023/01/12 06:28:41;;;;;;;1.77;0.63;;;10.40;99.90;;;;;;5093847;28;20183;-76
2023/01/12 06:31:10;;;;;;;1.20;0.50;;;10.30;99.90;;;;;;5092646;28;20179;-77
2023/01/12 06:33:36;;;;;;;1.30;0.60;;;10.30;99.90;;;;;;5111976;28;20206;-76
2023/01/12 06:36:02;;;;;;;1.57;0.50;;;10.30;99.90;;;;;;5085993;28;20600;-78
2023/01/12 06:38:31;;;;;;;1.33;0.60;;;10.30;99.90;;;;;;5058521;28;20187;-77
2023/01/12 06:43:59;;;;;;;4.97;1.05;;;10.20;99.90;;;;;;5093255;28;20171;-77
2023/01/12 06:46:26;;;;;;;2.43;0.60;;;10.30;99.90;;;;;;5093271;28;20179;-78
2023/01/12 06:48:55;;;;;;;2.08;0.60;;;10.30;99.90;;;;;;5093338;28;20252;-78
2023/01/12 06:51:21;;;;;;;1.67;0.60;;;10.30;99.90;;;;;;5092631;28;20533;-79
2023/01/12 06:53:47;;;;;;;3.33;0.60;;;10.30;99.90;;;;;;5045444;28;20184;-79
2023/01/12 06:56:12;;;;;;;2.50;0.80;;;10.20;99.90;;;;;;5092840;28;20666;-79
2023/01/12 06:58:41;;;;;;;4.23;1.20;;;10.20;99.90;;;;;;5054781;28;20196;-79
2023/01/12 07:01:07;;;;;;;2.08;0.57;;;10.20;99.90;;;;;;5045773;28;20198;-79
2023/01/12 07:03:33;;;;;;;1.47;0.73;;;10.30;99.90;;;;;;5074378;28;20179;-78
2023/01/12 07:05:59;;;;;;;3.20;0.83;;;10.30;99.90;;;;;;5074991;28;20800;-78
2023/01/12 07:08:26;;;;;;;1.30;0.50;;;10.30;99.90;;;;;;5073769;28;20214;-77
2023/01/12 07:10:53;;;;;;;1.40;0.60;;;10.30;99.90;;;;;;5069282;28;20207;-78
2023/01/12 07:13:18;;;;;;;2.33;0.60;;;10.30;99.90;;;;;;5090614;28;20183;-78
2023/01/12 07:15:44;;;;;;;1.73;0.50;;;10.30;99.90;;;;;;5112603;28;20183;-78
2023/01/12 07:18:10;;;;;;;1.50;0.50;;;10.30;99.90;;;;;;5094279;28;20257;-79
2023/01/12 07:20:35;;;;;;;5.27;0.63;;;10.30;99.90;;;;;;5111858;28;20569;-78
2023/01/12 07:23:01;;;;;;;5.97;0.63;;;10.30;99.90;;;;;;5094359;28;20261;-79
2023/01/12 07:25:27;;;;;;;1.30;0.50;;;10.30;99.90;;;;;;5105055;28;20173;-79
2023/01/12 07:27:55;;;;;;;3.90;0.70;;;10.30;99.90;;;;;;5102745;28;20167;-78
2023/01/12 07:30:22;;;;;;;2.83;0.60;;;10.40;99.90;;;;;;5095590;28;21124;-79
2023/01/12 07:32:48;;;;;;;2.08;0.60;;;10.30;99.90;;;;;;5112063;28;20171;-78
2023/01/12 07:35:15;;;;;;;3.83;0.70;;;10.40;99.90;;;;;;5112498;28;20185;-79
2023/01/12 07:37:52;;;;;;;4.90;0.60;;;10.40;99.90;;;;;;5093564;28;20541;-79
2023/01/12 07:40:18;;;;;;;3.63;0.68;;;10.40;99.90;;;;;;5111562;28;20214;-79
2023/01/12 07:42:44;;;;;;;3.58;0.60;;;10.40;99.90;;;;;;5076421;28;20273;-79
2023/01/12 07:45:11;;;;;;;2.80;0.65;;;10.50;99.90;;;;;;5077391;28;20171;-79
2023/01/12 07:47:37;;;;;;;2.37;0.70;;;10.50;99.90;;;;;;5094152;28;20669;-79
2023/01/12 07:50:03;;;;;;;3.63;0.80;;;10.50;99.90;;;;;;5092970;28;20540;-77
2023/01/12 07:52:29;;;;;;;2.67;0.50;;;10.60;99.90;;;;;;5108806;28;20184;-76
2023/01/12 07:54:55;;;;;;;3.20;1.20;;;10.60;99.90;;;;;;5056478;28;20197;-77
2023/01/12 07:57:21;;;;;;;4.00;0.80;;;10.60;99.90;;;;;;5091916;28;21084;-77
2023/01/12 07:59:47;;;;;;;4.53;0.73;;;10.70;99.90;;;;;;5072983;28;20219;-77
2023/01/12 08:02:15;;;;;;;2.23;0.90;;;10.80;99.90;;;;;;5073574;28;20175;-77
2023/01/12 08:04:45;;;;;;;3.65;1.00;;;10.80;99.90;;;;;;5056274;28;20634;-77
2023/01/12 08:07:12;;;;;;;3.72;0.70;;;10.90;99.90;;;;;;5073149;28;20172;-77
2023/01/12 08:09:37;;;;;;;3.30;1.08;;;10.90;99.90;;;;;;5090916;28;20215;-78
2023/01/12 08:12:04;;;;;;;1.70;0.60;;;11.00;99.90;;;;;;5056226;28;20164;-78
2023/01/12 08:14:36;;;;;;;2.85;0.60;;;11.00;99.90;;;;;;5091280;28;20229;-78
2023/01/12 08:17:04;;;;;;;2.58;0.77;;;11.00;99.90;;;;;;5091011;28;20175;-77
2023/01/12 08:19:37;;;;;;;2.05;0.60;;;11.10;99.90;;;;;;5091342;28;20227;-78
2023/01/12 08:22:08;;;;;;;1.63;0.75;;;11.10;99.90;;;;;;5071967;28;20176;-77
2023/01/12 08:24:38;;;;;;;4.80;0.70;;;11.20;99.90;;;;;;5072805;28;20213;-77
2023/01/12 08:27:06;;;;;;;3.22;1.00;;;11.20;99.90;;;;;;5065698;28;20234;-78
2023/01/12 08:29:44;;;;;;;2.42;0.60;;;11.20;99.90;;;;;;5070630;28;20254;-77
2023/01/12 08:32:12;;;;;;;1.60;0.63;;;11.30;99.90;;;;;;5091833;28;20175;-78
2023/01/12 08:34:40;;;;;;;2.38;0.60;;;11.30;99.90;;;;;;5092387;28;20650;-78
2023/01/12 08:37:09;;;;;;;2.20;0.55;;;11.30;99.90;;;;;;5111142;28;20171;-77
2023/01/12 08:39:35;;;;;;;1.65;0.57;;;11.30;99.90;;;;;;5111115;28;20619;-78
2023/01/12 08:42:02;;;;;;;1.95;0.82;;;11.30;99.90;;;;;;5110807;28;20173;-78
2023/01/12 08:44:32;;;;;;;2.35;0.70;;;11.40;99.90;;;;;;5075899;28;20189;-78
2023/01/12 08:46:58;;;;;;;1.30;0.60;;;11.40;99.90;;;;;;5078272;28;20238;-77
2023/01/12 08:49:27;;;;;;;2.13;0.70;;;11.40;99.90;;;;;;5111095;28;20297;-77
2023/01/12 08:51:53;;;;;;;1.70;0.60;;;11.40;99.90;;;;;;5091957;28;20170;-77
2023/01/12 08:54:20;;;;;;;1.27;0.52;;;11.50;99.90;;;;;;5095587;28;20282;-78
2023/01/12 08:56:46;;;;;;;1.20;0.50;;;11.50;99.90;;;;;;5072286;28;20168;-78
2023/01/12 08:59:12;;;;;;;1.77;0.60;;;11.50;99.90;;;;;;5072746;28;20694;-78
2023/01/12 09:01:38;;;;;;;1.55;0.50;;;11.50;99.90;;;;;;5089407;28;20581;-78
2023/01/12 09:04:04;;;;;;;1.77;0.60;;;11.60;99.90;;;;;;5072770;28;20179;-78
2023/01/12 09:06:34;;;;;;;1.70;0.52;;;11.60;99.90;;;;;;5071639;28;20688;-78
2023/01/12 09:09:02;;;;;;;1.92;0.50;;;11.60;99.90;;;;;;5072364;28;20356;-77
2023/01/12 09:11:29;;;;;;;1.55;0.50;;;11.60;99.90;;;;;;5066666;28;20310;-77
2023/01/12 09:13:57;;;;;;;1.60;0.70;;;11.60;99.90;;;;;;5097598;28;20540;-77
2023/01/12 09:16:27;;;;;;;2.25;0.70;;;11.70;99.90;;;;;;5086295;28;20188;-77
2023/01/12 09:18:53;;;;;;;1.55;0.60;;;11.70;99.90;;;;;;5090760;28;20658;-77
2023/01/12 09:21:20;;;;;;;2.80;0.40;;;11.70;99.90;;;;;;5086853;28;20267;-77
2023/01/12 09:23:50;;;;;;;4.90;0.60;;;11.70;99.90;;;;;;5097424;28;20546;-77
2023/01/12 09:26:19;;;;;;;2.45;0.50;;;11.80;99.90;;;;;;5113135;28;20208;-78
2023/01/12 09:28:45;;;;;;;1.83;0.50;;;11.80;99.90;;;;;;5112732;28;20191;-78
2023/01/12 09:31:16;;;;;;;1.63;0.60;;;11.80;99.90;;;;;;5093570;28;20765;-78
2023/01/12 09:33:42;;;;;;;1.20;0.50;;;11.90;99.90;;;;;;5093965;28;20186;-77
2023/01/12 09:36:11;;;;;;;1.63;0.50;;;11.90;99.90;;;;;;5112603;28;20503;-77
2023/01/12 09:38:39;;;;;;;1.15;0.43;;;11.90;99.90;;;;;;5112873;28;20223;-77
2023/01/12 09:46:57;;;;;;;1.85;0.80;;;11.90;99.90;;;;;;5093461;28;20185;-78
2023/01/12 09:46:57;;;;;;;1.40;0.50;;;12.00;99.90;;;;;;5094167;28;20179;-77
2023/01/12 09:49:29;;;;;;;1.10;0.40;;;12.10;99.90;;;;;;5112379;28;20233;-78
2023/01/12 09:52:12;;;;;;;1.30;0.50;;;12.10;99.90;;;;;;5111540;28;20197;-77
2023/01/12 09:54:38;;;;;;;1.42;0.50;;;12.10;99.90;;;;;;5112603;28;20316;-77
2023/01/12 09:57:11;;;;;;;1.65;0.52;;;12.10;99.90;;;;;;5093871;28;20174;-78
2023/01/12 09:59:58;;;;;;;1.30;0.50;;;12.20;99.90;;;;;;5060587;28;20197;-78
2023/01/12 10:02:25;;;;;;;2.65;0.60;;;12.20;99.90;;;;;;5112186;28;20214;-77
2023/01/12 10:04:55;;;;;;;1.40;0.50;;;12.20;99.90;;;;;;5094112;28;20170;-78
2023/01/12 10:07:21;;;;;;;3.85;0.50;;;12.20;99.90;;;;;;5093846;28;20175;-78
2023/01/12 10:09:47;;;;;;;1.93;0.50;;;12.30;99.90;;;;;;5111729;28;20704;-77
2023/01/12 10:12:33;;;;;;;1.10;0.40;;;12.30;99.90;;;;;;5093375;28;20576;-77
2023/01/12 10:15:02;;;;;;;1.80;0.50;;;12.30;99.90;;;;;;5094048;28;20922;-78
2023/01/12 10:17:40;;;;;;;2.90;0.50;;;12.30;99.90;;;;;;5111758;28;20167;-78
2023/01/12 10:20:28;;;;;;;1.80;0.70;;;12.30;99.90;;;;;;5111675;28;20195;-77
2023/01/12 10:23:06;;;;;;;1.50;0.68;;;12.40;99.90;;;;;;5111412;28;20220;-77
2023/01/12 10:26:01;;;;;;;1.60;0.80;;;12.40;99.90;;;;;;5084780;28;20199;-78
2023/01/12 10:28:32;;;;;;;1.63;0.40;;;12.40;99.90;;;;;;5088838;28;20654;-78
2023/01/12 10:30:59;;;;;;;1.50;0.60;;;12.40;99.90;;;;;;5100732;28;20632;-77
2023/01/12 10:33:31;;;;;;;3.58;0.65;;;12.40;99.90;;;;;;5093079;28;20163;-77
2023/01/12 10:35:56;;;;;;;1.50;0.50;;;12.50;99.90;;;;;;5093417;28;20167;-77
2023/01/12 10:38:27;;;;;;;3.00;0.70;;;12.40;99.90;;;;;;5113114;28;20736;-77
2023/01/12 10:41:10;;;;;;;1.90;0.60;;;12.50;99.90;;;;;;5098382;28;20207;-77
2023/01/12 10:43:38;;;;;;;1.88;0.70;;;12.50;99.90;;;;;;5064047;28;20233;-77
2023/01/12 10:46:13;;;;;;;1.30;0.50;;;12.60;99.90;;;;;;5052605;28;20245;-78
2023/01/12 10:48:42;;;;;;;2.45;0.55;;;12.60;99.90;;;;;;5073670;28;20210;-77
2023/01/12 10:51:29;;;;;;;2.17;0.50;;;12.70;99.90;;;;;;5053331;28;21018;-77
2023/01/12 10:54:02;;;;;;;3.30;0.52;;;12.70;99.90;;;;;;5072852;28;20603;-77
2023/01/12 10:56:39;;;;;;;1.20;0.47;;;12.80;99.90;;;;;;5054189;28;20230;-77
2023/01/12 10:59:11;;;;;;;1.27;0.40;;;12.80;99.90;;;;;;5071513;28;20187;-77
2023/01/12 11:01:50;;;;;;;1.30;0.50;;;12.90;99.90;;;;;;5094531;28;20171;-77
2023/01/12 11:04:27;;;;;;;2.25;0.60;;;12.90;99.90;;;;;;5094890;28;20240;-77
2023/01/12 11:07:01;;;;;;;1.50;0.50;;;12.90;99.90;;;;;;5094635;28;20194;-77
2023/01/12 11:09:30;;;;;;;2.25;0.55;;;13.00;99.90;;;;;;5112771;28;20632;-77
2023/01/12 11:11:59;;;;;;;1.63;0.40;;;13.00;99.90;;;;;;5112079;28;20174;-77
2023/01/12 11:14:31;;;;;;;1.10;0.40;;;13.00;99.90;;;;;;5091673;28;20169;-77
2023/01/12 11:17:15;;;;;;;1.30;0.40;;;13.10;99.90;;;;;;5095953;28;20172;-77
2023/01/12 11:19:43;;;;;;;1.27;0.50;;;13.10;99.90;;;;;;5073589;28;20187;-78
2023/01/12 11:22:26;;;;;;;1.50;0.50;;;13.10;99.90;;;;;;5092053;28;20214;-78
2023/01/12 11:25:02;;;;;;;1.60;0.50;;;13.20;99.90;;;;;;5092308;28;20167;-78
2023/01/12 11:27:34;;;;;;;1.73;0.50;;;13.20;99.90;;;;;;5057629;28;20601;-77
2023/01/12 11:30:11;;;;;;;1.90;0.60;;;13.30;99.90;;;;;;5072960;28;20641;-78
2023/01/12 11:32:40;;;;;;;1.60;0.50;;;13.30;99.90;;;;;;5073776;28;20672;-77
2023/01/12 11:35:34;;;;;;;1.60;0.52;;;13.40;99.90;;;;;;5073633;28;20662;-77
2023/01/12 11:38:07;;;;;;;1.63;0.50;;;13.40;99.90;;;;;;5089856;22;20259;-71
2023/01/12 11:40:36;;;;;;;1.10;0.40;;;13.50;99.90;;;;;;5072422;28;20594;-72
2023/01/12 11:46:16;;;;;;;1.70;0.65;;;13.50;99.90;;;;;;5070860;28;20562;-72
2023/01/12 11:48:54;;;;;;;1.90;0.60;;;13.50;99.90;;;;;;5084365;28;20552;-72
2023/01/12 11:51:20;;;;;;;1.50;0.53;;;13.60;99.90;;;;;;5052489;28;20590;-72
2023/01/12 11:53:46;;;;;;;1.40;0.50;;;13.60;99.90;;;;;;5058905;28;20621;-71
2023/01/12 11:56:33;;;;;;;1.20;0.40;;;13.60;99.90;;;;;;5052175;28;20181;-73
2023/01/12 11:59:08;;;;;;;2.50;0.40;;;13.60;99.90;;;;;;5046965;28;20213;-72
2023/01/12 12:02:14;;;;;;;1.93;0.60;;;13.70;99.90;;;;;;5052639;28;20607;-73
2023/01/12 12:04:46;;;;;;;1.40;0.50;;;13.70;99.90;;;;;;5071133;28;20571;-71
2023/01/12 12:07:39;;;;;;;2.50;0.60;;;13.80;99.90;;;;;;5053249;28;20698;-72
2023/01/12 12:10:19;;;;;;;2.60;0.60;;;13.80;99.90;;;;;;5070416;28;20662;-72
2023/01/12 12:13:27;;;;;;;1.40;0.40;;;13.80;99.90;;;;;;5053022;28;20636;-72
2023/01/12 12:16:18;;;;;;;3.00;0.90;;;13.80;99.90;;;;;;5053209;28;20168;-72
2023/01/12 12:19:01;;;;;;;2.67;0.80;;;13.80;99.90;;;;;;5070988;28;20563;-72
2023/01/12 12:21:47;;;;;;;2.27;0.70;;;13.80;99.90;;;;;;5035653;28;20623;-72
2023/01/12 12:24:36;;;;;;;1.30;0.50;;;13.80;99.90;;;;;;5065006;28;20578;-72
2023/01/12 12:27:14;;;;;;;2.00;0.60;;;13.80;99.90;;;;;;5047911;28;20743;-70
2023/01/12 12:29:49;;;;;;;1.93;0.50;;;13.80;99.90;;;;;;5036183;28;20633;-71
2023/01/12 12:32:43;;;;;;;1.43;0.50;;;13.70;99.90;;;;;;5052930;28;20590;-70
2023/01/12 12:35:34;;;;;;;2.60;0.77;;;13.70;99.90;;;;;;5071515;28;20644;-70
2023/01/12 12:38:39;;;;;;;4.10;1.23;;;13.70;99.90;;;;;;5037396;28;20638;-70
2023/01/12 12:47:42;;;;;;;1.30;0.50;;;13.60;99.90;;;;;;5050696;28;21032;-72
2023/01/12 12:50:31;;;;;;;1.37;0.50;;;13.60;99.90;;;;;;5032374;28;21212;-71
2023/01/12 12:53:03;;;;;;;1.40;0.43;;;13.60;99.90;;;;;;5054117;28;20613;-70
2023/01/12 12:55:30;;;;;;;2.60;0.60;;;13.50;99.90;;;;;;5037102;28;20762;-71
2023/01/12 12:58:03;;;;;;;1.87;0.40;;;13.50;99.90;;;;;;5019873;28;20196;-71
2023/01/12 13:00:42;;;;;;;1.20;0.40;;;13.50;99.90;;;;;;5036611;28;20671;-71
2023/01/12 13:03:09;;;;;;;1.20;0.40;;;13.50;99.90;;;;;;5036555;28;20630;-72
2023/01/12 13:06:16;;;;;;;1.10;0.40;;;13.50;99.90;;;;;;5074583;28;20172;-72
2023/01/12 13:08:42;;;;;;;1.13;0.40;;;13.50;99.90;;;;;;5074573;28;20573;-72
2023/01/12 13:11:08;;;;;;;1.40;0.50;;;13.50;99.90;;;;;;5055699;28;20634;-71
2023/01/12 13:13:36;;;;;;;2.70;0.50;;;13.50;99.90;;;;;;5056115;28;20691;-71
2023/01/12 13:16:14;;;;;;;1.20;0.40;;;13.40;99.90;;;;;;5056379;28;20567;-72
2023/01/12 13:18:49;;;;;;;1.07;0.40;;;13.40;99.90;;;;;;5039625;28;21153;-72
2023/01/12 13:21:41;;;;;;;1.58;0.50;;;13.40;99.90;;;;;;5073369;28;20577;-72
2023/01/12 13:24:20;;;;;;;1.07;0.40;;;13.40;99.90;;;;;;5056390;28;20601;-72
2023/01/12 13:26:51;;;;;;;1.30;0.50;;;13.40;99.90;;;;;;5039392;28;20666;-70
2023/01/12 13:29:23;;;;;;;1.08;0.40;;;13.30;99.90;;;;;;5049583;28;20747;-70
2023/01/12 13:31:51;;;;;;;1.10;0.50;;;13.30;99.90;;;;;;5043138;28;20654;-71
2023/01/12 13:34:35;;;;;;;1.27;0.60;;;13.30;99.90;;;;;;5073830;28;20582;-71
2023/01/12 13:37:07;;;;;;;1.70;0.60;;;13.30;99.90;;;;;;5038987;28;20228;-70
2023/01/12 13:39:38;;;;;;;1.60;0.83;;;13.30;99.90;;;;;;5056041;28;20625;-72
2023/01/12 13:44:59;;;;;;;2.90;0.83;;;13.30;99.90;;;;;;5055929;28;20579;-71